sensor_id;sensor_type;location;lat;lon;timestamp;P1;durP1;ratioP1;P2;durP2;ratioP2
54408;SDS011;40315;48.620;9.828;2023-11-21T00:01:39;5.30;;;1.52;;
54408;SDS011;40315;48.620;9.828;2023-11-21T00:04:07;4.05;;;1.92;;
54408;SDS011;40315;48.620;9.828;2023-11-21T00:06:34;4.35;;;1.52;;
54408;SDS011;40315;48.620;9.828;2023-11-21T00:09:03;4.50;;;1.75;;
54408;SDS011;40315;48.620;9.828;2023-11-21T00:11:30;4.88;;;1.73;;
54408;SDS011;40315;48.620;9.828;2023-11-21T00:13:58;4.00;;;1.60;;
54408;SDS011;40315;48.620;9.828;2023-11-21T00:16:25;5.18;;;1.77;;
54408;SDS011;40315;48.620;9.828;2023-11-21T00:18:52;4.43;;;1.80;;
54408;SDS011;40315;48.620;9.828;2023-11-21T00:21:20;5.68;;;1.92;;
54408;SDS011;40315;48.620;9.828;2023-11-21T00:23:47;8.23;;;1.95;;
54408;SDS011;40315;48.620;9.828;2023-11-21T00:26:19;4.20;;;2.30;;
54408;SDS011;40315;48.620;9.828;2023-11-21T00:28:56;5.75;;;2.08;;
54408;SDS011;40315;48.620;9.828;2023-11-21T00:31:23;6.05;;;2.03;;
54408;SDS011;40315;48.620;9.828;2023-11-21T00:33:50;6.38;;;2.35;;
54408;SDS011;40315;48.620;9.828;2023-11-21T00:36:20;5.75;;;2.05;;
54408;SDS011;40315;48.620;9.828;2023-11-21T00:38:47;5.18;;;2.20;;
54408;SDS011;40315;48.620;9.828;2023-11-21T00:41:15;3.70;;;2.10;;
54408;SDS011;40315;48.620;9.828;2023-11-21T00:43:43;5.13;;;1.90;;
54408;SDS011;40315;48.620;9.828;2023-11-21T00:46:11;5.45;;;1.92;;
54408;SDS011;40315;48.620;9.828;2023-11-21T00:48:39;5.90;;;2.05;;
54408;SDS011;40315;48.620;9.828;2023-11-21T00:51:06;3.25;;;1.55;;
54408;SDS011;40315;48.620;9.828;2023-11-21T00:53:37;5.47;;;1.73;;
54408;SDS011;40315;48.620;9.828;2023-11-21T00:56:05;5.30;;;1.70;;
54408;SDS011;40315;48.620;9.828;2023-11-21T00:58:33;3.15;;;1.55;;
54408;SDS011;40315;48.620;9.828;2023-11-21T01:01:06;5.18;;;1.52;;
54408;SDS011;40315;48.620;9.828;2023-11-21T01:03:33;2.05;;;1.45;;
54408;SDS011;40315;48.620;9.828;2023-11-21T01:06:02;3.45;;;1.60;;
54408;SDS011;40315;48.620;9.828;2023-11-21T01:08:32;3.95;;;2.13;;
54408;SDS011;40315;48.620;9.828;2023-11-21T01:11:01;4.07;;;2.13;;
54408;SDS011;40315;48.620;9.828;2023-11-21T01:13:30;4.68;;;1.70;;
54408;SDS011;40315;48.620;9.828;2023-11-21T01:15:57;7.25;;;2.13;;
54408;SDS011;40315;48.620;9.828;2023-11-21T01:18:26;2.55;;;1.48;;
54408;SDS011;40315;48.620;9.828;2023-11-21T01:20:54;3.90;;;1.80;;
54408;SDS011;40315;48.620;9.828;2023-11-21T01:23:22;4.68;;;2.10;;
54408;SDS011;40315;48.620;9.828;2023-11-21T01:28:22;4.40;;;1.90;;
54408;SDS011;40315;48.620;9.828;2023-11-21T01:30:52;3.20;;;1.77;;
54408;SDS011;40315;48.620;9.828;2023-11-21T01:33:21;4.22;;;1.83;;
54408;SDS011;40315;48.620;9.828;2023-11-21T01:35:52;6.22;;;1.90;;
54408;SDS011;40315;48.620;9.828;2023-11-21T01:38:21;2.90;;;1.50;;
54408;SDS011;40315;48.620;9.828;2023-11-21T01:40:48;3.95;;;1.50;;
54408;SDS011;40315;48.620;9.828;2023-11-21T01:43:15;4.88;;;1.90;;
54408;SDS011;40315;48.620;9.828;2023-11-21T01:45:43;4.15;;;1.60;;
54408;SDS011;40315;48.620;9.828;2023-11-21T01:48:11;6.13;;;1.77;;
54408;SDS011;40315;48.620;9.828;2023-11-21T01:50:39;4.53;;;1.50;;
54408;SDS011;40315;48.620;9.828;2023-11-21T02:14:07;5.03;;;2.13;;
54408;SDS011;40315;48.620;9.828;2023-11-21T02:16:34;4.45;;;1.40;;
54408;SDS011;40315;48.620;9.828;2023-11-21T02:19:02;3.38;;;1.50;;
54408;SDS011;40315;48.620;9.828;2023-11-21T02:21:30;3.90;;;1.80;;
54408;SDS011;40315;48.620;9.828;2023-11-21T02:23:59;3.78;;;1.70;;
54408;SDS011;40315;48.620;9.828;2023-11-21T02:26:27;4.88;;;1.40;;
54408;SDS011;40315;48.620;9.828;2023-11-21T02:28:54;2.35;;;1.23;;
54408;SDS011;40315;48.620;9.828;2023-11-21T02:31:23;3.97;;;1.55;;
54408;SDS011;40315;48.620;9.828;2023-11-21T02:33:50;3.95;;;1.67;;
54408;SDS011;40315;48.620;9.828;2023-11-21T02:36:18;5.78;;;1.92;;
54408;SDS011;40315;48.620;9.828;2023-11-21T02:38:46;6.25;;;1.80;;
54408;SDS011;40315;48.620;9.828;2023-11-21T02:41:15;3.90;;;1.75;;
54408;SDS011;40315;48.620;9.828;2023-11-21T02:43:42;5.55;;;2.35;;
54408;SDS011;40315;48.620;9.828;2023-11-21T02:46:09;6.35;;;1.73;;
54408;SDS011;40315;48.620;9.828;2023-11-21T02:48:38;5.13;;;1.73;;
54408;SDS011;40315;48.620;9.828;2023-11-21T02:51:05;3.67;;;1.65;;
54408;SDS011;40315;48.620;9.828;2023-11-21T02:53:32;5.25;;;1.77;;
54408;SDS011;40315;48.620;9.828;2023-11-21T02:56:01;4.47;;;1.40;;
54408;SDS011;40315;48.620;9.828;2023-11-21T02:58:29;4.07;;;1.58;;
54408;SDS011;40315;48.620;9.828;2023-11-21T03:00:56;3.33;;;1.33;;
54408;SDS011;40315;48.620;9.828;2023-11-21T03:03:23;4.07;;;1.70;;
54408;SDS011;40315;48.620;9.828;2023-11-21T03:05:50;8.55;;;1.55;;
54408;SDS011;40315;48.620;9.828;2023-11-21T03:08:17;5.10;;;1.70;;
54408;SDS011;40315;48.620;9.828;2023-11-21T03:10:44;6.57;;;1.77;;
54408;SDS011;40315;48.620;9.828;2023-11-21T03:13:11;5.65;;;1.52;;
54408;SDS011;40315;48.620;9.828;2023-11-21T03:15:40;2.72;;;1.40;;
54408;SDS011;40315;48.620;9.828;2023-11-21T03:18:07;3.78;;;1.52;;
54408;SDS011;40315;48.620;9.828;2023-11-21T03:20:34;4.80;;;1.65;;
54408;SDS011;40315;48.620;9.828;2023-11-21T03:23:01;5.43;;;1.65;;
54408;SDS011;40315;48.620;9.828;2023-11-21T03:25:30;5.93;;;1.45;;
54408;SDS011;40315;48.620;9.828;2023-11-21T03:27:57;5.07;;;1.33;;
54408;SDS011;40315;48.620;9.828;2023-11-21T03:30:24;3.80;;;1.80;;
54408;SDS011;40315;48.620;9.828;2023-11-21T03:32:52;5.85;;;1.92;;
54408;SDS011;40315;48.620;9.828;2023-11-21T03:35:22;3.35;;;1.30;;
54408;SDS011;40315;48.620;9.828;2023-11-21T03:37:49;5.78;;;1.60;;
54408;SDS011;40315;48.620;9.828;2023-11-21T03:40:16;3.25;;;1.30;;
54408;SDS011;40315;48.620;9.828;2023-11-21T03:42:46;2.65;;;1.17;;
54408;SDS011;40315;48.620;9.828;2023-11-21T03:45:15;3.55;;;1.20;;
54408;SDS011;40315;48.620;9.828;2023-11-21T03:47:42;3.45;;;1.48;;
54408;SDS011;40315;48.620;9.828;2023-11-21T03:50:12;3.28;;;1.17;;
54408;SDS011;40315;48.620;9.828;2023-11-21T03:52:39;1.55;;;1.10;;
54408;SDS011;40315;48.620;9.828;2023-11-21T03:55:06;2.55;;;1.40;;
54408;SDS011;40315;48.620;9.828;2023-11-21T03:57:34;3.55;;;1.08;;
54408;SDS011;40315;48.620;9.828;2023-11-21T04:00:01;2.30;;;1.05;;
54408;SDS011;40315;48.620;9.828;2023-11-21T04:02:37;4.15;;;1.15;;
54408;SDS011;40315;48.620;9.828;2023-11-21T04:05:04;2.83;;;1.00;;
54408;SDS011;40315;48.620;9.828;2023-11-21T04:07:33;2.35;;;1.05;;
54408;SDS011;40315;48.620;9.828;2023-11-21T04:10:02;2.80;;;1.25;;
54408;SDS011;40315;48.620;9.828;2023-11-21T04:12:32;2.45;;;1.30;;
54408;SDS011;40315;48.620;9.828;2023-11-21T04:14:59;3.40;;;1.17;;
54408;SDS011;40315;48.620;9.828;2023-11-21T04:17:26;2.85;;;1.23;;
54408;SDS011;40315;48.620;9.828;2023-11-21T04:19:53;2.13;;;1.27;;
54408;SDS011;40315;48.620;9.828;2023-11-21T04:22:21;4.18;;;1.40;;
54408;SDS011;40315;48.620;9.828;2023-11-21T04:24:49;3.67;;;1.50;;
54408;SDS011;40315;48.620;9.828;2023-11-21T04:27:16;4.13;;;1.27;;
54408;SDS011;40315;48.620;9.828;2023-11-21T04:29:44;3.42;;;1.50;;
54408;SDS011;40315;48.620;9.828;2023-11-21T04:32:13;3.30;;;1.40;;
54408;SDS011;40315;48.620;9.828;2023-11-21T04:34:40;2.10;;;1.30;;
54408;SDS011;40315;48.620;9.828;2023-11-21T04:37:07;2.42;;;1.50;;
54408;SDS011;40315;48.620;9.828;2023-11-21T04:39:35;2.45;;;1.40;;
54408;SDS011;40315;48.620;9.828;2023-11-21T04:42:04;4.18;;;1.40;;
54408;SDS011;40315;48.620;9.828;2023-11-21T04:44:32;5.05;;;1.60;;
54408;SDS011;40315;48.620;9.828;2023-11-21T04:46:59;5.10;;;1.52;;
54408;SDS011;40315;48.620;9.828;2023-11-21T04:49:26;2.22;;;1.45;;
54408;SDS011;40315;48.620;9.828;2023-11-21T04:51:53;1.45;;;1.20;;
54408;SDS011;40315;48.620;9.828;2023-11-21T04:54:20;4.57;;;1.45;;
54408;SDS011;40315;48.620;9.828;2023-11-21T04:56:48;4.03;;;1.30;;
54408;SDS011;40315;48.620;9.828;2023-11-21T04:59:16;4.05;;;1.60;;
54408;SDS011;40315;48.620;9.828;2023-11-21T05:01:44;2.15;;;1.48;;
54408;SDS011;40315;48.620;9.828;2023-11-21T05:04:11;3.80;;;1.55;;
54408;SDS011;40315;48.620;9.828;2023-11-21T05:06:39;4.43;;;1.80;;
54408;SDS011;40315;48.620;9.828;2023-11-21T05:09:06;5.10;;;2.10;;
54408;SDS011;40315;48.620;9.828;2023-11-21T05:11:37;2.28;;;1.58;;
54408;SDS011;40315;48.620;9.828;2023-11-21T05:14:06;3.95;;;1.60;;
54408;SDS011;40315;48.620;9.828;2023-11-21T05:16:35;1.90;;;1.10;;
54408;SDS011;40315;48.620;9.828;2023-11-21T05:19:03;1.92;;;1.20;;
54408;SDS011;40315;48.620;9.828;2023-11-21T05:21:30;3.40;;;1.52;;
54408;SDS011;40315;48.620;9.828;2023-11-21T05:23:58;2.40;;;1.33;;
54408;SDS011;40315;48.620;9.828;2023-11-21T05:26:26;3.40;;;1.15;;
54408;SDS011;40315;48.620;9.828;2023-11-21T05:28:54;3.00;;;1.20;;
54408;SDS011;40315;48.620;9.828;2023-11-21T05:31:21;1.98;;;1.27;;
54408;SDS011;40315;48.620;9.828;2023-11-21T05:33:49;4.28;;;1.30;;
54408;SDS011;40315;48.620;9.828;2023-11-21T05:36:16;3.13;;;1.50;;
54408;SDS011;40315;48.620;9.828;2023-11-21T05:38:43;3.55;;;1.40;;
54408;SDS011;40315;48.620;9.828;2023-11-21T05:41:11;1.83;;;1.20;;
54408;SDS011;40315;48.620;9.828;2023-11-21T05:43:38;1.88;;;1.30;;
54408;SDS011;40315;48.620;9.828;2023-11-21T05:46:06;3.22;;;1.35;;
54408;SDS011;40315;48.620;9.828;2023-11-21T05:48:34;2.92;;;1.30;;
54408;SDS011;40315;48.620;9.828;2023-11-21T05:51:04;3.90;;;1.40;;
54408;SDS011;40315;48.620;9.828;2023-11-21T05:53:31;4.95;;;1.52;;
54408;SDS011;40315;48.620;9.828;2023-11-21T05:55:58;4.55;;;1.95;;
54408;SDS011;40315;48.620;9.828;2023-11-21T05:58:25;1.63;;;1.27;;
54408;SDS011;40315;48.620;9.828;2023-11-21T06:00:52;3.15;;;1.50;;
54408;SDS011;40315;48.620;9.828;2023-11-21T06:03:19;4.90;;;2.55;;
54408;SDS011;40315;48.620;9.828;2023-11-21T06:05:46;3.97;;;2.33;;
54408;SDS011;40315;48.620;9.828;2023-11-21T06:08:14;4.63;;;1.90;;
54408;SDS011;40315;48.620;9.828;2023-11-21T06:10:42;1.95;;;1.50;;
54408;SDS011;40315;48.620;9.828;2023-11-21T06:13:10;2.92;;;2.00;;
54408;SDS011;40315;48.620;9.828;2023-11-21T06:15:36;3.35;;;1.88;;
54408;SDS011;40315;48.620;9.828;2023-11-21T06:18:04;1.63;;;1.50;;
54408;SDS011;40315;48.620;9.828;2023-11-21T06:20:35;5.07;;;3.05;;
54408;SDS011;40315;48.620;9.828;2023-11-21T06:23:03;28.83;;;10.30;;
54408;SDS011;40315;48.620;9.828;2023-11-21T06:25:32;20.17;;;8.02;;
54408;SDS011;40315;48.620;9.828;2023-11-21T06:28:01;17.88;;;7.15;;
54408;SDS011;40315;48.620;9.828;2023-11-21T06:30:28;16.10;;;6.13;;
54408;SDS011;40315;48.620;9.828;2023-11-21T06:32:56;5.75;;;3.10;;
54408;SDS011;40315;48.620;9.828;2023-11-21T06:35:23;3.80;;;2.15;;
54408;SDS011;40315;48.620;9.828;2023-11-21T06:37:50;2.13;;;1.60;;
54408;SDS011;40315;48.620;9.828;2023-11-21T06:40:17;2.72;;;1.80;;
54408;SDS011;40315;48.620;9.828;2023-11-21T06:42:46;2.40;;;1.90;;
54408;SDS011;40315;48.620;9.828;2023-11-21T06:45:13;3.45;;;2.40;;
54408;SDS011;40315;48.620;9.828;2023-11-21T06:47:41;4.30;;;2.10;;
54408;SDS011;40315;48.620;9.828;2023-11-21T06:50:08;3.70;;;1.45;;
54408;SDS011;40315;48.620;9.828;2023-11-21T06:52:36;3.13;;;1.65;;
54408;SDS011;40315;48.620;9.828;2023-11-21T06:55:02;2.08;;;1.08;;
54408;SDS011;40315;48.620;9.828;2023-11-21T06:57:32;2.75;;;1.20;;
54408;SDS011;40315;48.620;9.828;2023-11-21T07:00:00;1.42;;;0.77;;
54408;SDS011;40315;48.620;9.828;2023-11-21T07:02:28;2.17;;;0.88;;
54408;SDS011;40315;48.620;9.828;2023-11-21T07:04:55;2.65;;;0.80;;
54408;SDS011;40315;48.620;9.828;2023-11-21T07:07:22;1.25;;;0.80;;
54408;SDS011;40315;48.620;9.828;2023-11-21T07:09:51;2.60;;;1.15;;
54408;SDS011;40315;48.620;9.828;2023-11-21T07:12:18;1.85;;;0.95;;
54408;SDS011;40315;48.620;9.828;2023-11-21T07:14:48;2.00;;;1.02;;
54408;SDS011;40315;48.620;9.828;2023-11-21T07:17:17;1.95;;;1.00;;
54408;SDS011;40315;48.620;9.828;2023-11-21T07:19:44;2.63;;;1.00;;
54408;SDS011;40315;48.620;9.828;2023-11-21T07:22:11;1.52;;;1.10;;
54408;SDS011;40315;48.620;9.828;2023-11-21T07:24:39;4.43;;;1.30;;
54408;SDS011;40315;48.620;9.828;2023-11-21T07:27:06;2.78;;;1.23;;
54408;SDS011;40315;48.620;9.828;2023-11-21T07:29:35;1.90;;;1.33;;
54408;SDS011;40315;48.620;9.828;2023-11-21T07:32:02;3.25;;;1.50;;
54408;SDS011;40315;48.620;9.828;2023-11-21T07:34:30;2.92;;;1.35;;
54408;SDS011;40315;48.620;9.828;2023-11-21T07:36:58;1.85;;;1.33;;
54408;SDS011;40315;48.620;9.828;2023-11-21T07:39:25;3.28;;;1.63;;
54408;SDS011;40315;48.620;9.828;2023-11-21T07:41:52;2.30;;;1.98;;
54408;SDS011;40315;48.620;9.828;2023-11-21T07:44:19;2.85;;;2.25;;
54408;SDS011;40315;48.620;9.828;2023-11-21T07:46:48;4.72;;;2.60;;
54408;SDS011;40315;48.620;9.828;2023-11-21T07:49:16;4.35;;;1.50;;
54408;SDS011;40315;48.620;9.828;2023-11-21T07:51:47;3.67;;;1.55;;
54408;SDS011;40315;48.620;9.828;2023-11-21T07:54:14;4.22;;;1.95;;
54408;SDS011;40315;48.620;9.828;2023-11-21T07:56:41;5.10;;;1.92;;
54408;SDS011;40315;48.620;9.828;2023-11-21T07:59:08;1.58;;;1.10;;
54408;SDS011;40315;48.620;9.828;2023-11-21T08:01:36;2.30;;;1.33;;
54408;SDS011;40315;48.620;9.828;2023-11-21T08:04:03;2.83;;;1.50;;
54408;SDS011;40315;48.620;9.828;2023-11-21T08:06:31;1.52;;;1.20;;
54408;SDS011;40315;48.620;9.828;2023-11-21T08:09:00;2.90;;;1.30;;
54408;SDS011;40315;48.620;9.828;2023-11-21T08:11:27;3.17;;;1.35;;
54408;SDS011;40315;48.620;9.828;2023-11-21T08:13:56;2.30;;;1.10;;
54408;SDS011;40315;48.620;9.828;2023-11-21T08:16:24;4.90;;;1.60;;
54408;SDS011;40315;48.620;9.828;2023-11-21T08:18:52;3.30;;;1.65;;
54408;SDS011;40315;48.620;9.828;2023-11-21T08:21:20;3.03;;;1.40;;
54408;SDS011;40315;48.620;9.828;2023-11-21T08:23:49;2.78;;;1.63;;
54408;SDS011;40315;48.620;9.828;2023-11-21T08:26:21;1.98;;;1.20;;
54408;SDS011;40315;48.620;9.828;2023-11-21T08:28:48;1.58;;;1.23;;
54408;SDS011;40315;48.620;9.828;2023-11-21T08:31:17;1.50;;;1.13;;
54408;SDS011;40315;48.620;9.828;2023-11-21T08:33:49;1.98;;;1.40;;
54408;SDS011;40315;48.620;9.828;2023-11-21T08:36:17;2.05;;;1.48;;
54408;SDS011;40315;48.620;9.828;2023-11-21T08:38:44;1.63;;;1.38;;
54408;SDS011;40315;48.620;9.828;2023-11-21T08:41:11;1.83;;;1.20;;
54408;SDS011;40315;48.620;9.828;2023-11-21T08:43:41;3.35;;;1.40;;
54408;SDS011;40315;48.620;9.828;2023-11-21T08:46:09;1.15;;;0.98;;
54408;SDS011;40315;48.620;9.828;2023-11-21T08:48:36;1.73;;;0.80;;
54408;SDS011;40315;48.620;9.828;2023-11-21T08:51:03;2.10;;;0.80;;
54408;SDS011;40315;48.620;9.828;2023-11-21T08:53:30;0.93;;;0.77;;
54408;SDS011;40315;48.620;9.828;2023-11-21T08:55:58;1.48;;;1.10;;
54408;SDS011;40315;48.620;9.828;2023-11-21T08:58:28;1.23;;;1.10;;
54408;SDS011;40315;48.620;9.828;2023-11-21T09:00:57;1.45;;;1.17;;
54408;SDS011;40315;48.620;9.828;2023-11-21T09:03:24;1.02;;;0.80;;
54408;SDS011;40315;48.620;9.828;2023-11-21T09:05:51;1.17;;;0.80;;
54408;SDS011;40315;48.620;9.828;2023-11-21T09:08:18;1.13;;;0.70;;
54408;SDS011;40315;48.620;9.828;2023-11-21T09:10:47;1.83;;;1.38;;
54408;SDS011;40315;48.620;9.828;2023-11-21T09:13:14;1.98;;;1.10;;
54408;SDS011;40315;48.620;9.828;2023-11-21T09:15:41;3.17;;;1.30;;
54408;SDS011;40315;48.620;9.828;2023-11-21T09:18:12;2.05;;;0.98;;
54408;SDS011;40315;48.620;9.828;2023-11-21T09:20:40;1.63;;;1.00;;
54408;SDS011;40315;48.620;9.828;2023-11-21T09:23:07;3.95;;;1.58;;
54408;SDS011;40315;48.620;9.828;2023-11-21T09:25:34;2.17;;;1.60;;
54408;SDS011;40315;48.620;9.828;2023-11-21T09:28:02;3.20;;;2.10;;
54408;SDS011;40315;48.620;9.828;2023-11-21T09:30:35;4.30;;;1.30;;
54408;SDS011;40315;48.620;9.828;2023-11-21T09:33:02;2.00;;;1.50;;
54408;SDS011;40315;48.620;9.828;2023-11-21T09:35:32;2.63;;;1.20;;
54408;SDS011;40315;48.620;9.828;2023-11-21T09:37:59;1.25;;;0.93;;
54408;SDS011;40315;48.620;9.828;2023-11-21T09:40:30;1.15;;;0.90;;
54408;SDS011;40315;48.620;9.828;2023-11-21T09:42:58;3.92;;;1.50;;
54408;SDS011;40315;48.620;9.828;2023-11-21T09:45:25;1.23;;;1.08;;
54408;SDS011;40315;48.620;9.828;2023-11-21T09:47:54;2.08;;;1.08;;
54408;SDS011;40315;48.620;9.828;2023-11-21T09:50:22;1.67;;;1.10;;
54408;SDS011;40315;48.620;9.828;2023-11-21T09:52:54;1.60;;;1.50;;
54408;SDS011;40315;48.620;9.828;2023-11-21T09:55:28;0.80;;;0.80;;
54408;SDS011;40315;48.620;9.828;2023-11-21T09:57:57;1.70;;;1.00;;
54408;SDS011;40315;48.620;9.828;2023-11-21T10:00:26;2.50;;;1.60;;
54408;SDS011;40315;48.620;9.828;2023-11-21T10:02:53;2.28;;;1.95;;
54408;SDS011;40315;48.620;9.828;2023-11-21T10:05:24;1.30;;;1.00;;
54408;SDS011;40315;48.620;9.828;2023-11-21T10:07:51;2.50;;;1.13;;
54408;SDS011;40315;48.620;9.828;2023-11-21T10:10:22;1.50;;;1.40;;
54408;SDS011;40315;48.620;9.828;2023-11-21T10:12:53;2.30;;;1.73;;
54408;SDS011;40315;48.620;9.828;2023-11-21T10:15:23;1.65;;;1.50;;
54408;SDS011;40315;48.620;9.828;2023-11-21T10:17:51;1.67;;;1.42;;
54408;SDS011;40315;48.620;9.828;2023-11-21T10:20:19;2.60;;;1.70;;
54408;SDS011;40315;48.620;9.828;2023-11-21T10:22:47;2.15;;;1.60;;
54408;SDS011;40315;48.620;9.828;2023-11-21T10:25:16;3.28;;;2.10;;
54408;SDS011;40315;48.620;9.828;2023-11-21T10:27:47;2.45;;;2.00;;
54408;SDS011;40315;48.620;9.828;2023-11-21T10:30:17;2.45;;;1.80;;
54408;SDS011;40315;48.620;9.828;2023-11-21T10:32:44;4.22;;;1.90;;
54408;SDS011;40315;48.620;9.828;2023-11-21T10:35:11;2.22;;;1.60;;
54408;SDS011;40315;48.620;9.828;2023-11-21T10:37:39;1.70;;;1.60;;
54408;SDS011;40315;48.620;9.828;2023-11-21T10:40:06;2.10;;;1.77;;
54408;SDS011;40315;48.620;9.828;2023-11-21T10:42:38;2.08;;;1.88;;
54408;SDS011;40315;48.620;9.828;2023-11-21T10:45:05;2.95;;;2.00;;
54408;SDS011;40315;48.620;9.828;2023-11-21T10:47:37;2.30;;;1.70;;
54408;SDS011;40315;48.620;9.828;2023-11-21T10:50:05;3.63;;;1.80;;
54408;SDS011;40315;48.620;9.828;2023-11-21T10:52:39;2.08;;;1.85;;
54408;SDS011;40315;48.620;9.828;2023-11-21T10:55:20;2.53;;;2.20;;
54408;SDS011;40315;48.620;9.828;2023-11-21T10:57:52;2.65;;;2.20;;
54408;SDS011;40315;48.620;9.828;2023-11-21T11:00:20;4.00;;;2.28;;
54408;SDS011;40315;48.620;9.828;2023-11-21T11:02:51;2.17;;;1.98;;
54408;SDS011;40315;48.620;9.828;2023-11-21T11:05:20;2.85;;;2.03;;
54408;SDS011;40315;48.620;9.828;2023-11-21T11:07:50;2.58;;;2.20;;
54408;SDS011;40315;48.620;9.828;2023-11-21T11:10:19;2.28;;;1.77;;
54408;SDS011;40315;48.620;9.828;2023-11-21T11:12:48;2.38;;;1.73;;
54408;SDS011;40315;48.620;9.828;2023-11-21T11:15:19;2.78;;;1.25;;
54408;SDS011;40315;48.620;9.828;2023-11-21T11:17:46;1.58;;;1.48;;
54408;SDS011;40315;48.620;9.828;2023-11-21T11:20:16;2.10;;;1.95;;
54408;SDS011;40315;48.620;9.828;2023-11-21T11:22:48;7.90;;;5.45;;
54408;SDS011;40315;48.620;9.828;2023-11-21T11:25:29;6.03;;;4.75;;
54408;SDS011;40315;48.620;9.828;2023-11-21T11:28:21;6.43;;;4.78;;
54408;SDS011;40315;48.620;9.828;2023-11-21T11:30:59;2.72;;;1.30;;
54408;SDS011;40315;48.620;9.828;2023-11-21T11:33:32;16.35;;;12.38;;
54408;SDS011;40315;48.620;9.828;2023-11-21T11:36:06;10.88;;;6.93;;
54408;SDS011;40315;48.620;9.828;2023-11-21T11:38:36;4.57;;;3.00;;
54408;SDS011;40315;48.620;9.828;2023-11-21T11:41:04;4.10;;;2.63;;
54408;SDS011;40315;48.620;9.828;2023-11-21T11:43:34;4.05;;;3.28;;
54408;SDS011;40315;48.620;9.828;2023-11-21T11:46:13;4.30;;;3.58;;
54408;SDS011;40315;48.620;9.828;2023-11-21T11:48:40;2.55;;;2.25;;
54408;SDS011;40315;48.620;9.828;2023-11-21T11:51:10;2.80;;;2.58;;
54408;SDS011;40315;48.620;9.828;2023-11-21T11:53:39;3.40;;;2.60;;
54408;SDS011;40315;48.620;9.828;2023-11-21T11:56:24;1.95;;;1.63;;
54408;SDS011;40315;48.620;9.828;2023-11-21T11:58:56;2.20;;;2.00;;
54408;SDS011;40315;48.620;9.828;2023-11-21T12:01:26;1.88;;;1.58;;
54408;SDS011;40315;48.620;9.828;2023-11-21T12:07:01;3.58;;;3.28;;
54408;SDS011;40315;48.620;9.828;2023-11-21T12:09:29;1.58;;;0.93;;
54408;SDS011;40315;48.620;9.828;2023-11-21T12:11:58;1.80;;;0.82;;
54408;SDS011;40315;48.620;9.828;2023-11-21T12:14:26;6.25;;;4.55;;
54408;SDS011;40315;48.620;9.828;2023-11-21T12:16:55;3.38;;;2.70;;
54408;SDS011;40315;48.620;9.828;2023-11-21T12:19:22;1.98;;;1.77;;
54408;SDS011;40315;48.620;9.828;2023-11-21T12:21:52;1.92;;;1.63;;
54408;SDS011;40315;48.620;9.828;2023-11-21T12:24:21;4.03;;;3.72;;
54408;SDS011;40315;48.620;9.828;2023-11-21T12:26:51;3.08;;;2.30;;
54408;SDS011;40315;48.620;9.828;2023-11-21T12:29:21;5.43;;;4.13;;
54408;SDS011;40315;48.620;9.828;2023-11-21T12:31:48;1.27;;;1.00;;
54408;SDS011;40315;48.620;9.828;2023-11-21T12:34:17;1.10;;;0.70;;
54408;SDS011;40315;48.620;9.828;2023-11-21T12:36:44;1.48;;;0.93;;
54408;SDS011;40315;48.620;9.828;2023-11-21T12:39:12;1.98;;;1.48;;
54408;SDS011;40315;48.620;9.828;2023-11-21T12:41:39;1.50;;;1.10;;
54408;SDS011;40315;48.620;9.828;2023-11-21T12:44:09;1.30;;;1.20;;
54408;SDS011;40315;48.620;9.828;2023-11-21T12:46:41;1.83;;;1.35;;
54408;SDS011;40315;48.620;9.828;2023-11-21T12:49:10;1.48;;;1.30;;
54408;SDS011;40315;48.620;9.828;2023-11-21T12:51:43;2.15;;;1.48;;
54408;SDS011;40315;48.620;9.828;2023-11-21T12:54:12;1.90;;;1.70;;
54408;SDS011;40315;48.620;9.828;2023-11-21T12:56:41;1.77;;;1.60;;
54408;SDS011;40315;48.620;9.828;2023-11-21T12:59:12;2.08;;;1.88;;
54408;SDS011;40315;48.620;9.828;2023-11-21T13:01:41;2.65;;;2.40;;
54408;SDS011;40315;48.620;9.828;2023-11-21T13:04:08;2.50;;;2.30;;
54408;SDS011;40315;48.620;9.828;2023-11-21T13:06:37;2.65;;;2.20;;
54408;SDS011;40315;48.620;9.828;2023-11-21T13:09:07;1.55;;;1.40;;
54408;SDS011;40315;48.620;9.828;2023-11-21T13:11:36;1.80;;;1.70;;
54408;SDS011;40315;48.620;9.828;2023-11-21T13:14:06;1.70;;;1.20;;
54408;SDS011;40315;48.620;9.828;2023-11-21T13:16:33;2.55;;;1.70;;
54408;SDS011;40315;48.620;9.828;2023-11-21T13:19:00;1.40;;;1.30;;
54408;SDS011;40315;48.620;9.828;2023-11-21T13:21:28;1.58;;;0.90;;
54408;SDS011;40315;48.620;9.828;2023-11-21T13:23:55;0.95;;;0.80;;
54408;SDS011;40315;48.620;9.828;2023-11-21T13:26:24;1.20;;;1.10;;
54408;SDS011;40315;48.620;9.828;2023-11-21T13:28:54;1.50;;;1.13;;
54408;SDS011;40315;48.620;9.828;2023-11-21T13:31:21;3.30;;;1.25;;
54408;SDS011;40315;48.620;9.828;2023-11-21T13:33:52;2.05;;;1.17;;
54408;SDS011;40315;48.620;9.828;2023-11-21T13:36:24;1.85;;;1.15;;
54408;SDS011;40315;48.620;9.828;2023-11-21T13:38:55;6.57;;;4.65;;
54408;SDS011;40315;48.620;9.828;2023-11-21T13:41:25;3.10;;;2.25;;
54408;SDS011;40315;48.620;9.828;2023-11-21T13:43:58;5.20;;;2.53;;
54408;SDS011;40315;48.620;9.828;2023-11-21T13:46:34;3.10;;;2.80;;
54408;SDS011;40315;48.620;9.828;2023-11-21T13:49:02;6.43;;;4.82;;
54408;SDS011;40315;48.620;9.828;2023-11-21T13:51:34;2.70;;;2.50;;
54408;SDS011;40315;48.620;9.828;2023-11-21T13:54:05;5.97;;;4.80;;
54408;SDS011;40315;48.620;9.828;2023-11-21T13:56:36;2.95;;;2.35;;
54408;SDS011;40315;48.620;9.828;2023-11-21T13:59:07;5.63;;;3.63;;
54408;SDS011;40315;48.620;9.828;2023-11-21T14:01:47;7.38;;;5.20;;
54408;SDS011;40315;48.620;9.828;2023-11-21T14:04:23;14.85;;;7.90;;
54408;SDS011;40315;48.620;9.828;2023-11-21T14:07:19;8.02;;;4.32;;
54408;SDS011;40315;48.620;9.828;2023-11-21T14:10:00;3.95;;;3.35;;
54408;SDS011;40315;48.620;9.828;2023-11-21T14:12:29;4.03;;;2.65;;
54408;SDS011;40315;48.620;9.828;2023-11-21T14:14:59;3.40;;;3.05;;
54408;SDS011;40315;48.620;9.828;2023-11-21T14:17:28;5.07;;;2.33;;
54408;SDS011;40315;48.620;9.828;2023-11-21T14:19:55;6.18;;;3.35;;
54408;SDS011;40315;48.620;9.828;2023-11-21T14:22:22;5.07;;;3.28;;
54408;SDS011;40315;48.620;9.828;2023-11-21T14:24:51;5.53;;;3.30;;
54408;SDS011;40315;48.620;9.828;2023-11-21T14:27:20;5.18;;;3.53;;
54408;SDS011;40315;48.620;9.828;2023-11-21T14:29:48;4.90;;;3.20;;
54408;SDS011;40315;48.620;9.828;2023-11-21T14:32:15;4.25;;;2.97;;
54408;SDS011;40315;48.620;9.828;2023-11-21T14:34:42;4.68;;;2.58;;
54408;SDS011;40315;48.620;9.828;2023-11-21T14:37:12;10.88;;;5.85;;
54408;SDS011;40315;48.620;9.828;2023-11-21T14:39:39;4.30;;;3.13;;
54408;SDS011;40315;48.620;9.828;2023-11-21T14:42:10;3.70;;;2.95;;
54408;SDS011;40315;48.620;9.828;2023-11-21T14:44:40;3.22;;;2.60;;
54408;SDS011;40315;48.620;9.828;2023-11-21T14:47:09;2.70;;;1.90;;
54408;SDS011;40315;48.620;9.828;2023-11-21T14:49:40;2.50;;;2.22;;
54408;SDS011;40315;48.620;9.828;2023-11-21T14:52:17;5.50;;;3.13;;
54408;SDS011;40315;48.620;9.828;2023-11-21T14:54:57;2.95;;;2.00;;
54408;SDS011;40315;48.620;9.828;2023-11-21T14:57:45;2.35;;;1.80;;
54408;SDS011;40315;48.620;9.828;2023-11-21T15:00:17;4.30;;;3.38;;
54408;SDS011;40315;48.620;9.828;2023-11-21T15:03:04;7.18;;;4.50;;
54408;SDS011;40315;48.620;9.828;2023-11-21T15:05:32;7.32;;;4.28;;
54408;SDS011;40315;48.620;9.828;2023-11-21T15:08:00;6.40;;;4.35;;
54408;SDS011;40315;48.620;9.828;2023-11-21T15:10:43;4.93;;;4.43;;
54408;SDS011;40315;48.620;9.828;2023-11-21T15:13:12;5.43;;;4.72;;
54408;SDS011;40315;48.620;9.828;2023-11-21T15:15:42;12.75;;;11.48;;
54408;SDS011;40315;48.620;9.828;2023-11-21T15:18:10;7.80;;;7.03;;
54408;SDS011;40315;48.620;9.828;2023-11-21T15:20:40;6.32;;;5.72;;
54408;SDS011;40315;48.620;9.828;2023-11-21T15:23:11;7.75;;;6.95;;
54408;SDS011;40315;48.620;9.828;2023-11-21T15:25:39;4.93;;;3.78;;